Clarendon, New York
Current Conditions -  °F | °C
As of 5:54 PM on Monday 22 Dec 2014 (Local Time) from KROC Reporting Station
Broken Clouds Broken Clouds  
Wind Chill: 28°   Ceiling: 20000
Heat Index: 36°   Visibility: 10mi
Dew Point: 26°   Wind: 10mph
Humidity: 67%   Direction: 160°SSE
Pressure: 30.11"   Gusts: NA
Location:  43.19°N, 78.06°W
Report Text: KROC 222254Z 16009KT 10SM BKN200 02/M03 A3011 RMK AO2 SLP205 T00221033
Loading
Personal Weather Stations






























Interactive Weather Map New forecast layout! Learn more

10-Day Weather Forecast

Advertisements
Track Severe Weather on mobile